createdAt,value
2023-03-15T00:01:27.072Z,8.56
2023-03-15T00:03:57.049Z,8.62
2023-03-15T00:06:24.216Z,8.62
2023-03-15T00:08:52.077Z,8.40
2023-03-15T00:11:19.528Z,8.21
2023-03-15T00:13:46.725Z,8.11
2023-03-15T00:16:17.551Z,8.62
2023-03-15T00:18:47.997Z,8.65
2023-03-15T00:21:15.456Z,8.74
2023-03-15T00:23:42.510Z,8.88
2023-03-15T00:26:09.314Z,8.97
2023-03-15T00:28:36.253Z,8.55
2023-03-15T00:31:05.975Z,8.39
2023-03-15T00:33:34.855Z,8.45
2023-03-15T00:36:07.546Z,8.03
2023-03-15T00:38:36.484Z,8.10
2023-03-15T00:41:08.938Z,8.45
2023-03-15T00:43:36.359Z,7.84
2023-03-15T00:46:04.289Z,7.78
2023-03-15T00:48:31.778Z,8.17
2023-03-15T00:51:18.524Z,8.38
2023-03-15T00:53:47.847Z,8.13
2023-03-15T00:56:18.772Z,7.91
2023-03-15T00:58:46.129Z,8.13
2023-03-15T01:01:21.007Z,8.32
2023-03-15T01:03:48.359Z,7.83
2023-03-15T01:06:19.572Z,7.79
2023-03-15T01:08:46.903Z,7.59
2023-03-15T01:11:21.327Z,7.89
2023-03-15T01:13:48.163Z,7.93
2023-03-15T01:16:15.570Z,7.60
2023-03-15T01:18:42.933Z,7.83
2023-03-15T01:21:12.862Z,7.60
2023-03-15T01:23:40.499Z,6.97
2023-03-15T01:26:11.946Z,7.38
2023-03-15T01:28:38.897Z,7.67
2023-03-15T01:31:05.864Z,7.68
2023-03-15T01:33:33.030Z,7.89
2023-03-15T01:36:07.701Z,7.92
2023-03-15T01:38:35.012Z,7.46
2023-03-15T01:41:02.178Z,7.47
2023-03-15T01:43:31.922Z,7.36
2023-03-15T01:46:20.293Z,7.60
2023-03-15T01:48:58.658Z,7.46
2023-03-15T01:51:46.158Z,7.47
2023-03-15T01:54:27.205Z,7.15
2023-03-15T01:57:09.295Z,7.58
2023-03-15T01:59:44.344Z,7.57
2023-03-15T02:02:15.287Z,7.51
2023-03-15T02:04:48.927Z,7.61
2023-03-15T02:07:18.671Z,7.52
2023-03-15T02:10:07.524Z,7.50
2023-03-15T02:12:42.837Z,7.68
2023-03-15T02:15:11.521Z,7.47
2023-03-15T02:17:42.287Z,7.57
2023-03-15T02:20:48.588Z,7.61
2023-03-15T02:23:19.728Z,7.67
2023-03-15T02:25:59.083Z,7.69
2023-03-15T02:28:26.831Z,7.80
2023-03-15T02:30:53.718Z,7.90
2023-03-15T02:33:32.785Z,7.97
2023-03-15T02:36:24.451Z,7.61
2023-03-15T02:38:52.614Z,7.91
2023-03-15T02:41:36.851Z,7.74
2023-03-15T02:44:14.222Z,7.71
2023-03-15T02:46:42.969Z,7.45
2023-03-15T02:49:11.865Z,7.58
2023-03-15T02:51:38.764Z,7.06
2023-03-15T02:54:05.898Z,6.94
2023-03-15T02:56:33.686Z,7.04
2023-03-15T02:59:00.955Z,7.01
2023-03-15T03:01:27.962Z,6.66
2023-03-15T03:03:54.799Z,6.71
2023-03-15T03:06:21.677Z,6.46
2023-03-15T03:08:48.662Z,6.26
2023-03-15T03:11:16.223Z,6.42
2023-03-15T03:13:43.611Z,6.46
2023-03-15T03:16:11.059Z,6.56
2023-03-15T03:18:38.390Z,6.64
2023-03-15T03:21:07.740Z,6.57
2023-03-15T03:23:35.993Z,6.56
2023-03-15T03:26:04.164Z,6.60
2023-03-15T03:28:32.304Z,6.77
2023-03-15T03:30:59.367Z,6.26
2023-03-15T03:33:26.263Z,6.50
2023-03-15T03:35:54.223Z,6.57
2023-03-15T03:38:21.097Z,6.95
2023-03-15T03:40:48.052Z,6.05
2023-03-15T03:43:14.899Z,6.23
2023-03-15T03:45:41.671Z,6.69
2023-03-15T03:48:09.028Z,6.37
2023-03-15T03:50:35.907Z,6.51
2023-03-15T03:53:02.813Z,6.69
2023-03-15T03:55:29.603Z,6.62
2023-03-15T03:57:56.434Z,6.47
2023-03-15T04:00:23.625Z,6.06
2023-03-15T04:02:54.129Z,6.14
2023-03-15T04:05:21.499Z,6.24
2023-03-15T04:07:48.379Z,6.59
2023-03-15T04:10:15.431Z,6.11
2023-03-15T04:12:44.057Z,6.28
2023-03-15T04:15:11.904Z,6.26
2023-03-15T04:17:39.367Z,6.46
2023-03-15T04:20:09.061Z,6.01
2023-03-15T04:22:35.975Z,6.16
2023-03-15T04:25:03.018Z,5.89
2023-03-15T04:27:30.512Z,5.80
2023-03-15T04:29:57.291Z,6.00
2023-03-15T04:32:24.314Z,5.95
2023-03-15T04:34:51.504Z,5.90
2023-03-15T04:37:19.221Z,6.10
2023-03-15T04:39:46.045Z,6.12
2023-03-15T04:42:12.867Z,6.29
2023-03-15T04:44:39.688Z,5.67
2023-03-15T04:47:07.015Z,6.31
2023-03-15T04:49:34.066Z,6.47
2023-03-15T04:52:01.357Z,6.49
2023-03-15T04:54:28.357Z,6.34
2023-03-15T04:56:55.180Z,6.32
2023-03-15T04:59:22.054Z,6.62
2023-03-15T05:01:49.076Z,6.63
2023-03-15T05:04:16.420Z,6.38
2023-03-15T05:06:43.310Z,6.52
2023-03-15T05:09:19.238Z,6.35
2023-03-15T05:11:46.703Z,6.27
2023-03-15T05:14:14.105Z,6.51
2023-03-15T05:16:41.103Z,6.50
2023-03-15T05:19:08.334Z,6.51
2023-03-15T05:21:35.215Z,6.48
2023-03-15T05:24:02.124Z,6.32
2023-03-15T05:26:28.964Z,6.52
2023-03-15T05:28:55.797Z,6.54
2023-03-15T05:31:22.670Z,6.59
2023-03-15T05:33:49.645Z,6.31
2023-03-15T05:36:17.443Z,6.37
2023-03-15T05:38:45.704Z,6.62
2023-03-15T05:41:18.063Z,6.76
2023-03-15T05:43:45.209Z,6.76
2023-03-15T05:46:12.101Z,6.61
2023-03-15T05:48:39.138Z,6.85
2023-03-15T05:51:05.988Z,6.97
2023-03-15T05:53:32.947Z,6.98
2023-03-15T05:55:59.743Z,6.94
2023-03-15T05:58:26.665Z,6.81
2023-03-15T06:00:53.627Z,6.44
2023-03-15T06:03:20.551Z,6.65
2023-03-15T06:05:47.343Z,6.82
2023-03-15T06:08:14.265Z,6.88
2023-03-15T06:10:41.203Z,6.76
2023-03-15T06:13:08.076Z,6.83
2023-03-15T06:15:34.976Z,6.56
2023-03-15T06:18:01.825Z,6.73
2023-03-15T06:20:28.702Z,6.82
2023-03-15T06:22:55.541Z,6.88
2023-03-15T06:25:22.377Z,6.89
2023-03-15T06:27:49.272Z,6.75
2023-03-15T06:30:17.204Z,6.94
2023-03-15T06:32:44.240Z,6.82
2023-03-15T06:35:11.157Z,6.75
2023-03-15T06:37:38.153Z,6.66
2023-03-15T06:40:08.773Z,6.92
2023-03-15T06:42:36.426Z,7.16
2023-03-15T06:45:04.088Z,7.59
2023-03-15T06:47:30.943Z,7.79
2023-03-15T06:49:57.882Z,7.42
2023-03-15T06:52:24.862Z,7.83
2023-03-15T06:54:51.684Z,7.88
2023-03-15T06:57:18.525Z,8.05
2023-03-15T06:59:45.315Z,7.72
2023-03-15T07:02:18.537Z,8.09
2023-03-15T07:04:45.531Z,8.14
2023-03-15T07:07:13.681Z,8.20
2023-03-15T07:09:41.067Z,8.39
2023-03-15T07:12:10.044Z,8.04
2023-03-15T07:14:37.593Z,8.09
2023-03-15T07:17:04.685Z,8.26
2023-03-15T07:19:31.546Z,8.00
2023-03-15T07:21:58.332Z,8.36
2023-03-15T07:24:25.232Z,8.07
2023-03-15T07:26:56.191Z,8.64
2023-03-15T07:29:24.547Z,8.33
2023-03-15T07:31:51.913Z,8.77
2023-03-15T07:34:18.889Z,8.57
2023-03-15T07:36:45.764Z,8.55
2023-03-15T07:39:12.936Z,8.88
2023-03-15T07:41:39.852Z,8.55
2023-03-15T07:44:06.799Z,8.67
2023-03-15T07:46:34.099Z,8.91
2023-03-15T07:49:00.919Z,8.30
2023-03-15T07:51:27.811Z,8.93
2023-03-15T07:53:54.697Z,8.83
2023-03-15T07:56:21.622Z,9.03
2023-03-15T07:58:48.457Z,9.83
2023-03-15T08:01:15.416Z,9.27
2023-03-15T08:03:42.251Z,10.25
2023-03-15T08:06:09.201Z,9.34
2023-03-15T08:08:36.013Z,9.08
2023-03-15T08:11:05.060Z,9.38
2023-03-15T08:13:32.065Z,9.51
2023-03-15T08:15:58.897Z,9.39
2023-03-15T08:18:28.893Z,9.55
2023-03-15T08:20:56.506Z,9.59
2023-03-15T08:23:23.815Z,9.34
2023-03-15T08:25:50.641Z,9.02
2023-03-15T08:28:17.841Z,9.34
2023-03-15T08:30:44.636Z,9.03
2023-03-15T08:33:12.565Z,9.35
2023-03-15T08:35:39.617Z,9.48
2023-03-15T08:38:06.420Z,10.01
2023-03-15T08:40:33.481Z,10.68
2023-03-15T08:43:00.342Z,11.40
2023-03-15T08:45:27.728Z,12.00
2023-03-15T08:47:57.001Z,11.77
2023-03-15T08:50:24.186Z,11.34
2023-03-15T08:52:51.077Z,11.03
2023-03-15T08:55:18.117Z,11.15
2023-03-15T08:57:44.982Z,11.16
2023-03-15T09:00:22.887Z,10.36
2023-03-15T09:02:52.123Z,10.17
2023-03-15T09:05:20.401Z,10.00
2023-03-15T09:07:48.127Z,9.72
2023-03-15T09:10:17.494Z,10.38
2023-03-15T09:12:47.921Z,9.87
2023-03-15T09:15:15.530Z,10.57
2023-03-15T09:17:42.864Z,10.91
2023-03-15T09:20:16.884Z,11.00
2023-03-15T09:22:50.633Z,11.42
2023-03-15T09:25:18.142Z,11.15
2023-03-15T09:27:44.937Z,11.31
2023-03-15T09:30:12.512Z,12.04
2023-03-15T09:32:39.600Z,10.60
2023-03-15T09:35:09.942Z,10.91
2023-03-15T09:37:36.742Z,11.31
2023-03-15T09:40:04.748Z,11.71
2023-03-15T09:42:51.946Z,11.96
2023-03-15T09:45:48.807Z,11.60
2023-03-15T09:48:29.061Z,11.34
2023-03-15T09:51:16.304Z,11.77
2023-03-15T09:53:59.108Z,11.94
2023-03-15T09:56:36.841Z,12.00
2023-03-15T09:59:05.701Z,11.27
2023-03-15T10:01:40.856Z,11.52
2023-03-15T10:04:26.029Z,11.22
2023-03-15T10:06:57.466Z,10.89
2023-03-15T10:09:29.524Z,11.15
2023-03-15T10:12:12.452Z,11.03
2023-03-15T10:15:23.134Z,12.32
2023-03-15T10:17:58.906Z,13.17
2023-03-15T10:20:30.043Z,12.25
2023-03-15T10:23:12.725Z,12.06
2023-03-15T10:25:41.059Z,12.00
2023-03-15T10:28:31.229Z,11.69
2023-03-15T10:31:10.541Z,12.11
2023-03-15T10:33:39.514Z,11.31
2023-03-15T10:36:17.646Z,11.08
2023-03-15T10:38:46.154Z,11.34
2023-03-15T10:41:29.202Z,11.03
2023-03-15T10:44:04.702Z,11.03
2023-03-15T10:46:31.815Z,12.37
2023-03-15T10:49:11.963Z,12.80
2023-03-15T10:51:46.528Z,13.55
2023-03-15T10:54:21.158Z,12.00
2023-03-15T10:56:55.575Z,13.57
2023-03-15T10:59:26.004Z,13.67
2023-03-15T11:02:12.804Z,13.66
2023-03-15T11:04:47.795Z,13.38
2023-03-15T11:07:14.656Z,14.03
2023-03-15T11:09:55.310Z,13.74
2023-03-15T11:12:24.207Z,13.23
2023-03-15T11:14:57.888Z,13.75
2023-03-15T11:17:29.869Z,13.55
2023-03-15T11:20:10.045Z,13.30
2023-03-15T11:22:36.855Z,13.91
2023-03-15T11:25:04.349Z,15.02
2023-03-15T11:27:31.772Z,15.90
2023-03-15T11:30:01.853Z,15.52
2023-03-15T11:32:32.014Z,14.43
2023-03-15T11:35:07.116Z,14.65
2023-03-15T11:37:50.133Z,15.50
2023-03-15T11:40:22.369Z,15.83
2023-03-15T11:43:03.854Z,16.30
2023-03-15T11:45:53.481Z,16.33
2023-03-15T11:48:33.843Z,15.63
2023-03-15T11:51:01.846Z,16.99
2023-03-15T11:53:42.330Z,15.86
2023-03-15T11:56:26.632Z,15.83
2023-03-15T11:59:13.131Z,16.00
2023-03-15T12:01:52.037Z,15.55
2023-03-15T12:04:29.601Z,15.40
2023-03-15T12:06:58.290Z,14.96
2023-03-15T12:09:36.239Z,15.03
2023-03-15T12:12:27.370Z,13.77
2023-03-15T12:15:36.015Z,14.13
2023-03-15T12:18:06.919Z,13.04
2023-03-15T12:20:45.009Z,13.56
2023-03-15T12:23:17.591Z,15.23
2023-03-15T12:26:06.009Z,16.91
2023-03-15T12:29:02.127Z,18.20
2023-03-15T12:31:58.469Z,16.75
2023-03-15T12:34:46.720Z,16.00
2023-03-15T12:37:54.583Z,19.03
2023-03-15T12:40:26.505Z,19.44
2023-03-15T12:42:57.384Z,18.03
2023-03-15T12:45:38.578Z,18.17
2023-03-15T12:48:12.812Z,20.55
2023-03-15T12:50:45.849Z,18.94
2023-03-15T12:53:24.103Z,15.94
2023-03-15T12:55:59.479Z,14.41
2023-03-15T12:58:36.282Z,14.05
2023-03-15T13:01:06.365Z,13.59
2023-03-15T13:03:35.773Z,13.70
2023-03-15T13:06:28.751Z,13.37
2023-03-15T13:09:38.961Z,15.25
2023-03-15T13:12:37.263Z,16.71
2023-03-15T13:15:21.767Z,15.82
2023-03-15T13:18:04.520Z,14.53
2023-03-15T13:20:59.607Z,14.89
2023-03-15T13:23:29.541Z,15.96
2023-03-15T13:26:26.476Z,15.82
2023-03-15T13:29:15.039Z,16.47
2023-03-15T13:31:42.577Z,15.25
2023-03-15T13:34:24.148Z,14.67
2023-03-15T13:36:57.875Z,14.15
2023-03-15T13:39:34.606Z,13.68
2023-03-15T13:42:06.442Z,14.00
2023-03-15T13:44:33.989Z,13.80
2023-03-15T13:47:01.328Z,13.75
2023-03-15T13:49:33.403Z,13.54
2023-03-15T13:52:11.985Z,13.79
2023-03-15T13:54:40.251Z,13.83
2023-03-15T13:57:15.535Z,14.03
2023-03-15T13:59:47.821Z,13.78
2023-03-15T14:02:26.809Z,12.92
2023-03-15T14:05:00.553Z,13.26
2023-03-15T14:07:40.205Z,12.83
2023-03-15T14:10:38.183Z,12.90
2023-03-15T14:13:26.730Z,13.00
2023-03-15T14:16:06.660Z,13.13
2023-03-15T14:18:39.530Z,12.98
2023-03-15T14:21:15.905Z,12.53
2023-03-15T14:23:47.473Z,12.56
2023-03-15T14:26:27.174Z,12.25
2023-03-15T14:29:07.559Z,12.24
2023-03-15T14:31:47.153Z,12.18
2023-03-15T14:34:35.595Z,10.85
2023-03-15T14:37:10.050Z,11.11
2023-03-15T14:39:42.560Z,10.72
2023-03-15T14:42:12.596Z,9.95
2023-03-15T14:44:39.461Z,9.55
2023-03-15T14:47:16.368Z,10.19
2023-03-15T14:49:43.259Z,10.33
2023-03-15T14:52:13.713Z,10.31
2023-03-15T14:54:46.982Z,10.42
2023-03-15T14:57:13.774Z,10.45
2023-03-15T14:59:40.636Z,10.17
2023-03-15T15:02:15.683Z,10.61
2023-03-15T15:04:43.886Z,10.27
2023-03-15T15:07:13.814Z,10.59
2023-03-15T15:09:47.901Z,10.64
2023-03-15T15:12:14.838Z,10.60
2023-03-15T15:14:42.832Z,10.55
2023-03-15T15:17:10.058Z,10.72
2023-03-15T15:19:37.216Z,11.00
2023-03-15T15:22:04.124Z,11.16
2023-03-15T15:24:31.438Z,11.34
2023-03-15T15:26:58.344Z,11.41
2023-03-15T15:29:25.295Z,11.14
2023-03-15T15:31:52.309Z,10.82
2023-03-15T15:34:19.283Z,10.73
2023-03-15T15:36:46.519Z,10.44
2023-03-15T15:39:27.460Z,10.78
2023-03-15T15:41:54.366Z,10.90
2023-03-15T15:44:26.763Z,11.01
2023-03-15T15:46:53.896Z,10.69
2023-03-15T15:49:21.141Z,10.94
2023-03-15T15:51:49.718Z,10.38
2023-03-15T15:54:20.379Z,10.22
2023-03-15T15:56:54.178Z,10.60
2023-03-15T15:59:21.165Z,10.77
2023-03-15T16:02:06.582Z,10.56
2023-03-15T16:04:33.471Z,10.19
2023-03-15T16:07:02.516Z,10.34
2023-03-15T16:09:36.009Z,9.87
2023-03-15T16:12:09.721Z,9.73
2023-03-15T16:14:36.531Z,9.66
2023-03-15T16:17:05.412Z,9.63
2023-03-15T16:19:32.341Z,9.80
2023-03-15T16:21:59.289Z,9.74
2023-03-15T16:24:35.371Z,9.72
2023-03-15T16:27:06.199Z,9.73
2023-03-15T16:29:38.245Z,9.92
2023-03-15T16:32:17.547Z,9.83
2023-03-15T16:34:52.223Z,9.96
2023-03-15T16:37:26.438Z,10.05
2023-03-15T16:39:57.564Z,10.01
2023-03-15T16:42:25.688Z,9.63
2023-03-15T16:44:53.770Z,9.35
2023-03-15T16:47:21.146Z,9.70
2023-03-15T16:49:48.121Z,9.78
2023-03-15T16:52:16.572Z,9.78
2023-03-15T16:54:47.594Z,9.68
2023-03-15T16:57:21.859Z,9.57
2023-03-15T16:59:49.988Z,9.57
2023-03-15T17:02:28.685Z,9.47
2023-03-15T17:04:55.565Z,9.43
2023-03-15T17:07:29.992Z,9.22
2023-03-15T17:09:57.050Z,9.22
2023-03-15T17:12:27.035Z,9.11
2023-03-15T17:14:56.906Z,9.18
2023-03-15T17:17:26.742Z,9.06
2023-03-15T17:19:54.164Z,9.02
2023-03-15T17:22:21.721Z,9.07
2023-03-15T17:24:49.269Z,9.10
2023-03-15T17:27:26.506Z,9.12
2023-03-15T17:29:53.281Z,9.17
2023-03-15T17:32:20.210Z,9.17
2023-03-15T17:34:47.534Z,9.11
2023-03-15T17:37:18.643Z,9.11
2023-03-15T17:39:47.688Z,9.02
2023-03-15T17:42:15.487Z,9.09
2023-03-15T17:44:42.600Z,9.23
2023-03-15T17:47:12.895Z,8.70
2023-03-15T17:49:39.804Z,9.12
2023-03-15T17:52:15.370Z,9.16
2023-03-15T17:54:42.326Z,9.17
2023-03-15T17:57:14.177Z,9.01
2023-03-15T17:59:41.011Z,8.89
2023-03-15T18:02:17.447Z,8.90
2023-03-15T18:04:44.266Z,8.70
2023-03-15T18:07:11.098Z,8.56
2023-03-15T18:09:37.946Z,8.39
2023-03-15T18:12:04.995Z,8.62
2023-03-15T18:14:37.040Z,8.68
2023-03-15T18:17:04.317Z,8.39
2023-03-15T18:19:31.227Z,8.52
2023-03-15T18:21:58.139Z,8.56
2023-03-15T18:24:24.973Z,8.60
2023-03-15T18:26:52.996Z,8.52
2023-03-15T18:29:19.997Z,8.55
2023-03-15T18:31:46.881Z,8.55
2023-03-15T18:34:16.474Z,8.60
2023-03-15T18:36:43.407Z,8.65
2023-03-15T18:39:10.365Z,8.56
2023-03-15T18:41:37.328Z,8.62
2023-03-15T18:44:04.219Z,8.71
2023-03-15T18:46:31.957Z,8.66
2023-03-15T18:48:59.216Z,8.66
2023-03-15T18:51:28.041Z,8.56
2023-03-15T18:53:56.075Z,8.66
2023-03-15T18:56:26.271Z,8.73
2023-03-15T18:58:54.638Z,8.41
2023-03-15T19:01:23.802Z,8.54
2023-03-15T19:03:52.644Z,8.33
2023-03-15T19:06:20.462Z,8.40
2023-03-15T19:08:53.148Z,8.40
2023-03-15T19:11:21.208Z,8.54
2023-03-15T19:13:50.991Z,8.64
2023-03-15T19:16:22.106Z,8.65
2023-03-15T19:18:51.631Z,8.82
2023-03-15T19:21:20.115Z,8.61
2023-03-15T19:23:47.498Z,8.74
2023-03-15T19:26:14.457Z,8.77
2023-03-15T19:28:41.494Z,8.83
2023-03-15T19:31:09.138Z,8.84
2023-03-15T19:33:36.187Z,8.81
2023-03-15T19:36:04.013Z,8.85
2023-03-15T19:38:31.226Z,8.78
2023-03-15T19:41:06.477Z,8.73
2023-03-15T19:43:33.335Z,8.71
2023-03-15T19:46:01.478Z,8.82
2023-03-15T19:48:28.423Z,8.81
2023-03-15T19:50:55.224Z,8.71
2023-03-15T19:53:22.104Z,8.53
2023-03-15T19:55:48.980Z,8.52
2023-03-15T19:58:15.867Z,8.53
2023-03-15T20:00:42.773Z,8.60
2023-03-15T20:03:09.917Z,8.63
2023-03-15T20:05:38.077Z,8.66
2023-03-15T20:08:05.254Z,8.54
2023-03-15T20:10:32.236Z,8.50
2023-03-15T20:12:59.405Z,8.32
2023-03-15T20:15:28.243Z,8.14
2023-03-15T20:17:56.255Z,8.03
2023-03-15T20:20:23.426Z,7.88
2023-03-15T20:22:50.575Z,7.75
2023-03-15T20:25:20.729Z,7.64
2023-03-15T20:27:48.582Z,7.70
2023-03-15T20:30:17.694Z,7.72
2023-03-15T20:32:45.010Z,7.71
2023-03-15T20:35:12.573Z,7.70
2023-03-15T20:37:41.445Z,7.60
2023-03-15T20:40:12.936Z,7.60
2023-03-15T20:42:40.360Z,7.59
2023-03-15T20:45:09.568Z,7.54
2023-03-15T20:47:37.878Z,7.53
2023-03-15T20:50:07.343Z,7.54
2023-03-15T20:52:34.326Z,7.57
2023-03-15T20:55:01.582Z,7.60
2023-03-15T20:57:28.480Z,7.59
2023-03-15T20:59:55.376Z,7.49
2023-03-15T21:02:22.463Z,7.45
2023-03-15T21:04:49.417Z,7.49
2023-03-15T21:07:16.354Z,7.59
2023-03-15T21:09:43.276Z,7.61
2023-03-15T21:12:10.093Z,7.63
2023-03-15T21:14:37.000Z,7.66
2023-03-15T21:17:03.845Z,7.70
2023-03-15T21:19:31.708Z,7.68
2023-03-15T21:22:00.280Z,7.57
2023-03-15T21:24:31.118Z,7.47
2023-03-15T21:26:58.271Z,7.43
2023-03-15T21:29:25.463Z,7.43
2023-03-15T21:31:52.414Z,7.30
2023-03-15T21:34:19.238Z,7.21
2023-03-15T21:36:46.110Z,7.06
2023-03-15T21:39:12.994Z,6.88
2023-03-15T21:41:39.779Z,6.77
2023-03-15T21:44:06.674Z,6.69
2023-03-15T21:46:33.826Z,6.55
2023-03-15T21:49:01.738Z,6.58
2023-03-15T21:51:29.477Z,6.52
2023-03-15T21:53:56.412Z,6.46
2023-03-15T21:56:26.137Z,6.41
2023-03-15T21:58:54.698Z,6.37
2023-03-15T22:01:22.662Z,6.33
2023-03-15T22:03:53.108Z,6.29
2023-03-15T22:06:21.699Z,6.26
2023-03-15T22:08:50.052Z,6.18
2023-03-15T22:11:17.032Z,6.13
2023-03-15T22:13:43.999Z,6.07
2023-03-15T22:16:12.282Z,5.96
2023-03-15T22:18:39.402Z,5.86
2023-03-15T22:21:06.926Z,5.65
2023-03-15T22:23:33.807Z,5.62
2023-03-15T22:26:00.609Z,5.58
2023-03-15T22:28:27.488Z,5.59
2023-03-15T22:30:54.507Z,5.55
2023-03-15T22:33:22.335Z,5.49
2023-03-15T22:35:59.011Z,5.47
2023-03-15T22:38:26.882Z,5.45
2023-03-15T22:41:08.536Z,5.39
2023-03-15T22:43:37.092Z,5.38
2023-03-15T22:46:04.292Z,5.35
2023-03-15T22:48:31.376Z,5.40
2023-03-15T22:51:09.596Z,5.38
2023-03-15T22:53:36.470Z,5.36
2023-03-15T22:56:04.075Z,5.41
2023-03-15T22:58:31.140Z,5.43
2023-03-15T23:00:58.324Z,5.42
2023-03-15T23:03:26.308Z,5.36
2023-03-15T23:05:54.785Z,5.31
2023-03-15T23:08:22.830Z,5.29
2023-03-15T23:10:49.793Z,5.29
2023-03-15T23:13:16.698Z,5.32
2023-03-15T23:15:43.845Z,5.35
2023-03-15T23:18:10.820Z,5.37
2023-03-15T23:20:37.609Z,5.33
2023-03-15T23:23:04.424Z,5.28
2023-03-15T23:25:31.428Z,5.18
2023-03-15T23:27:58.279Z,5.12
2023-03-15T23:30:25.519Z,5.10
2023-03-15T23:32:57.420Z,5.08
2023-03-15T23:35:24.744Z,5.07
2023-03-15T23:37:52.986Z,5.03
2023-03-15T23:40:21.181Z,5.05
2023-03-15T23:42:52.355Z,4.98
2023-03-15T23:45:19.359Z,4.96
2023-03-15T23:47:46.204Z,4.97
2023-03-15T23:50:13.567Z,4.98
2023-03-15T23:52:41.170Z,4.98
2023-03-15T23:55:08.764Z,4.75
2023-03-15T23:57:35.567Z,4.70
